createdAt,value
2022-10-02T00:00:23.359Z,0.00
2022-10-02T00:01:23.557Z,0.00
2022-10-02T00:02:23.694Z,0.00
2022-10-02T00:03:23.882Z,0.00
2022-10-02T00:04:24.116Z,0.00
2022-10-02T00:06:25.475Z,0.00
2022-10-02T00:07:23.617Z,0.04
2022-10-02T00:08:25.260Z,0.00
2022-10-02T00:09:25.012Z,0.00
2022-10-02T00:10:24.147Z,0.00
2022-10-02T00:11:23.274Z,0.00
2022-10-02T00:12:25.564Z,0.00
2022-10-02T00:13:25.817Z,0.00
2022-10-02T00:14:24.899Z,0.00
2022-10-02T00:15:25.082Z,0.00
2022-10-02T00:16:24.374Z,0.00
2022-10-02T00:17:24.437Z,0.00
2022-10-02T00:18:24.616Z,0.00
2022-10-02T00:19:23.804Z,0.00
2022-10-02T00:20:23.955Z,0.00
2022-10-02T00:21:23.066Z,0.00
2022-10-02T00:22:24.285Z,0.00
2022-10-02T00:23:23.419Z,0.00
2022-10-02T00:24:23.581Z,0.00
2022-10-02T00:25:24.804Z,0.00
2022-10-02T00:26:22.886Z,0.00
2022-10-02T00:27:22.997Z,0.00
2022-10-02T00:28:23.243Z,0.00
2022-10-02T00:29:24.448Z,0.00
2022-10-02T00:30:23.595Z,0.00
2022-10-02T00:31:24.916Z,0.00
2022-10-02T00:32:22.975Z,0.00
2022-10-02T00:33:24.198Z,0.00
2022-10-02T00:34:24.362Z,0.00
2022-10-02T00:35:23.513Z,0.00
2022-10-02T00:36:24.713Z,0.00
2022-10-02T00:37:23.415Z,0.00
2022-10-02T00:38:23.998Z,0.00
2022-10-02T00:39:24.159Z,0.00
2022-10-02T00:40:23.266Z,0.00
2022-10-02T00:41:24.468Z,0.00
2022-10-02T00:42:23.636Z,0.00
2022-10-02T00:43:24.792Z,0.00
2022-10-02T00:44:22.874Z,0.00
2022-10-02T00:45:24.066Z,0.00
2022-10-02T00:46:23.188Z,0.00
2022-10-02T00:47:23.323Z,0.00
2022-10-02T00:48:23.515Z,0.00
2022-10-02T00:49:24.621Z,0.00
2022-10-02T00:50:23.706Z,0.00
2022-10-02T00:51:22.828Z,0.00
2022-10-02T00:52:22.957Z,0.00
2022-10-02T00:53:23.127Z,0.00
2022-10-02T00:54:23.298Z,0.00
2022-10-02T00:55:23.399Z,0.00
2022-10-02T00:56:23.535Z,0.00
2022-10-02T00:57:23.671Z,0.00
2022-10-02T00:58:23.829Z,0.00
2022-10-02T00:59:23.989Z,0.00
2022-10-02T01:00:23.072Z,0.00
2022-10-02T01:01:24.357Z,0.00
2022-10-02T01:03:23.676Z,0.00
2022-10-02T01:04:22.783Z,0.00
2022-10-02T01:05:22.946Z,0.00
2022-10-02T01:06:23.059Z,0.00
2022-10-02T01:07:23.208Z,0.00
2022-10-02T01:08:23.351Z,0.00
2022-10-02T01:09:23.493Z,0.00
2022-10-02T01:10:29.921Z,0.00
2022-10-02T01:11:22.730Z,0.00
2022-10-02T01:12:23.941Z,0.00
2022-10-02T01:13:23.041Z,0.00
2022-10-02T01:14:24.221Z,0.00
2022-10-02T01:15:24.382Z,0.00
2022-10-02T01:16:24.833Z,0.00
2022-10-02T01:17:24.719Z,0.00
2022-10-02T01:18:23.821Z,0.00
2022-10-02T01:19:23.970Z,0.00
2022-10-02T01:20:22.061Z,0.00
2022-10-02T01:21:23.264Z,0.00
2022-10-02T01:22:22.429Z,0.00
2022-10-02T01:23:24.605Z,0.00
2022-10-02T01:24:22.698Z,0.00
2022-10-02T01:26:22.000Z,0.00
2022-10-02T01:28:20.386Z,0.00
2022-10-02T01:28:26.520Z,0.00
2022-10-02T01:29:26.666Z,0.00
2022-10-02T01:30:27.878Z,0.00
2022-10-02T01:31:27.080Z,0.04
2022-10-02T01:32:33.383Z,0.00
2022-10-02T01:33:26.288Z,0.00
2022-10-02T01:34:28.491Z,0.00
2022-10-02T01:35:28.684Z,0.00
2022-10-02T01:36:26.149Z,0.00
2022-10-02T01:37:27.368Z,0.00
2022-10-02T01:38:29.027Z,0.00
2022-10-02T01:39:26.676Z,0.00
2022-10-02T01:40:26.826Z,0.00
2022-10-02T01:41:28.081Z,0.04
2022-10-02T01:42:26.208Z,0.00
2022-10-02T01:43:26.374Z,0.00
2022-10-02T01:44:27.594Z,0.00
2022-10-02T01:45:26.733Z,0.00
2022-10-02T01:46:26.872Z,0.00
2022-10-02T01:47:28.091Z,0.00
2022-10-02T01:48:28.319Z,0.00
2022-10-02T01:49:27.455Z,0.00
2022-10-02T01:50:27.705Z,0.00
2022-10-02T01:51:26.817Z,0.00
2022-10-02T01:52:28.055Z,0.00
2022-10-02T01:53:28.292Z,0.00
2022-10-02T01:54:28.468Z,0.00
2022-10-02T01:55:26.610Z,0.00
2022-10-02T01:56:25.788Z,0.00
2022-10-02T01:57:28.046Z,0.00
2022-10-02T01:58:28.263Z,0.00
2022-10-02T01:59:27.434Z,0.00
2022-10-02T02:00:27.654Z,0.00
2022-10-02T02:01:28.045Z,0.00
2022-10-02T02:02:27.046Z,0.00
2022-10-02T02:03:27.186Z,0.00
2022-10-02T02:04:28.381Z,0.00
2022-10-02T02:05:28.556Z,0.00
2022-10-02T02:06:26.670Z,0.00
2022-10-02T02:07:25.816Z,0.00
2022-10-02T02:08:27.026Z,0.00
2022-10-02T02:09:27.217Z,0.00
2022-10-02T02:10:26.374Z,0.00
2022-10-02T02:11:26.529Z,0.00
2022-10-02T02:12:25.683Z,0.00
2022-10-02T02:13:25.882Z,0.00
2022-10-02T02:14:28.139Z,0.00
2022-10-02T02:16:26.498Z,0.04
2022-10-02T02:17:41.158Z,0.00
2022-10-02T02:18:27.536Z,0.00
2022-10-02T02:19:27.063Z,0.00
2022-10-02T02:20:26.176Z,0.00
2022-10-02T02:21:27.419Z,0.00
2022-10-02T02:22:25.544Z,0.00
2022-10-02T02:23:26.768Z,0.00
2022-10-02T02:24:25.946Z,0.00
2022-10-02T02:25:26.128Z,0.00
2022-10-02T02:26:26.288Z,0.00
2022-10-02T02:27:26.470Z,0.00
2022-10-02T02:28:25.623Z,0.00
2022-10-02T02:29:26.868Z,0.00
2022-10-02T02:30:25.997Z,0.00
2022-10-02T02:31:27.220Z,0.00
2022-10-02T02:32:26.287Z,0.00
2022-10-02T02:33:25.429Z,0.00
2022-10-02T02:34:25.598Z,0.00
2022-10-02T02:35:26.788Z,0.00
2022-10-02T02:36:26.916Z,0.00
2022-10-02T02:37:26.021Z,0.00
2022-10-02T02:38:27.218Z,0.00
2022-10-02T02:39:27.411Z,0.00
2022-10-02T02:40:26.509Z,0.00
2022-10-02T02:41:26.769Z,0.00
2022-10-02T02:42:27.821Z,0.00
2022-10-02T02:43:26.983Z,0.00
2022-10-02T02:44:27.177Z,0.00
2022-10-02T02:45:26.323Z,0.00
2022-10-02T02:46:25.447Z,0.00
2022-10-02T02:47:25.657Z,0.00
2022-10-02T02:48:25.758Z,0.00
2022-10-02T02:49:25.966Z,0.00
2022-10-02T02:50:26.090Z,0.00
2022-10-02T02:51:25.222Z,0.00
2022-10-02T02:52:26.548Z,0.00
2022-10-02T02:53:26.622Z,0.00
2022-10-02T02:54:25.795Z,0.00
2022-10-02T02:55:25.912Z,0.00
2022-10-02T02:56:26.083Z,0.00
2022-10-02T02:57:25.230Z,0.00
2022-10-02T02:58:26.446Z,0.00
2022-10-02T02:59:25.530Z,0.00
2022-10-02T03:00:25.703Z,0.00
2022-10-02T03:01:27.011Z,0.00
2022-10-02T03:02:26.104Z,0.00
2022-10-02T03:03:26.240Z,0.00
2022-10-02T03:04:25.398Z,0.00
2022-10-02T03:05:25.521Z,0.00
2022-10-02T03:06:25.707Z,0.00
2022-10-02T03:07:26.908Z,0.00
2022-10-02T03:08:25.031Z,0.00
2022-10-02T03:09:26.288Z,0.00
2022-10-02T03:10:25.384Z,0.00
2022-10-02T03:11:25.538Z,0.00
2022-10-02T03:12:25.717Z,0.00
2022-10-02T03:13:25.855Z,0.00
2022-10-02T03:14:25.002Z,0.00
2022-10-02T03:15:26.391Z,0.00
2022-10-02T03:16:28.425Z,0.00
2022-10-02T03:17:24.753Z,0.00
2022-10-02T03:18:26.428Z,0.00
2022-10-02T03:19:25.556Z,0.00
2022-10-02T03:20:25.732Z,0.00
2022-10-02T03:21:25.275Z,0.00
2022-10-02T03:22:26.094Z,0.00
2022-10-02T03:23:25.228Z,0.00
2022-10-02T03:24:25.420Z,0.00
2022-10-02T03:25:26.593Z,0.00
2022-10-02T03:27:25.882Z,0.00
2022-10-02T03:28:50.536Z,0.00
2022-10-02T03:29:27.276Z,0.00
2022-10-02T03:30:26.453Z,0.00
2022-10-02T03:32:26.834Z,0.00
2022-10-02T03:33:27.051Z,0.00
2022-10-02T03:34:27.238Z,0.00
2022-10-02T03:35:26.364Z,0.00
2022-10-02T03:36:26.565Z,0.00
2022-10-02T03:37:26.800Z,0.00
2022-10-02T03:38:24.866Z,0.00
2022-10-02T03:39:26.467Z,0.00
2022-10-02T03:40:25.258Z,0.00
2022-10-02T03:41:24.370Z,0.00
2022-10-02T03:42:26.618Z,0.00
2022-10-02T03:43:26.295Z,0.00
2022-10-02T03:44:26.996Z,0.00
2022-10-02T03:45:49.451Z,0.00
2022-10-02T03:46:40.945Z,0.00
2022-10-02T03:47:25.448Z,0.00
2022-10-02T03:48:24.603Z,0.00
2022-10-02T03:49:25.844Z,0.00
2022-10-02T03:50:24.980Z,0.00
2022-10-02T03:51:25.147Z,0.00
2022-10-02T03:52:25.314Z,0.00
2022-10-02T03:54:24.655Z,0.00
2022-10-02T03:55:26.952Z,0.00
2022-10-02T03:56:27.129Z,0.00
2022-10-02T03:57:25.194Z,0.00
2022-10-02T03:58:24.306Z,0.00
2022-10-02T03:59:24.457Z,0.00
2022-10-02T04:00:24.649Z,0.00
2022-10-02T04:01:24.897Z,0.00
2022-10-02T04:02:24.959Z,0.00
2022-10-02T04:03:25.214Z,0.00
2022-10-02T04:04:24.305Z,0.00
2022-10-02T04:05:25.493Z,0.00
2022-10-02T04:06:24.637Z,0.00
2022-10-02T04:07:24.847Z,0.00
2022-10-02T04:08:24.977Z,0.00
2022-10-02T04:09:25.168Z,0.00
2022-10-02T04:10:24.319Z,0.00
2022-10-02T04:11:25.537Z,0.00
2022-10-02T04:12:24.658Z,0.00
2022-10-02T04:13:31.113Z,0.00
2022-10-02T04:14:25.059Z,0.00
2022-10-02T04:15:24.157Z,0.00
2022-10-02T04:16:24.431Z,0.00
2022-10-02T04:17:24.572Z,0.00
2022-10-02T04:18:24.711Z,0.00
2022-10-02T04:19:26.285Z,0.00
2022-10-02T04:20:24.109Z,0.00
2022-10-02T04:21:24.183Z,0.00
2022-10-02T04:22:24.355Z,0.00
2022-10-02T04:24:24.727Z,0.04
2022-10-02T04:25:24.060Z,0.00
2022-10-02T04:26:25.029Z,0.00
2022-10-02T04:27:25.186Z,0.00
2022-10-02T04:28:24.392Z,0.00
2022-10-02T04:29:24.531Z,0.00
2022-10-02T04:30:24.746Z,0.00
2022-10-02T04:31:25.944Z,0.00
2022-10-02T04:32:24.031Z,0.00
2022-10-02T04:33:24.216Z,0.00
2022-10-02T04:34:25.431Z,0.00
2022-10-02T04:35:24.566Z,0.00
2022-10-02T04:36:23.811Z,0.00
2022-10-02T04:37:24.910Z,0.00
2022-10-02T04:38:24.061Z,0.00
2022-10-02T04:39:24.274Z,0.00
2022-10-02T04:40:25.491Z,0.00
2022-10-02T04:41:23.623Z,0.00
2022-10-02T04:42:23.813Z,0.00
2022-10-02T04:43:26.074Z,0.00
2022-10-02T04:44:25.199Z,0.00
2022-10-02T04:45:24.371Z,0.00
2022-10-02T04:46:49.432Z,0.02
2022-10-02T04:47:25.091Z,0.00
2022-10-02T04:48:23.823Z,0.02
2022-10-02T04:49:24.013Z,0.00
2022-10-02T04:50:25.203Z,0.00
2022-10-02T04:51:24.363Z,0.00
2022-10-02T04:52:23.519Z,0.00
2022-10-02T04:53:23.823Z,0.02
2022-10-02T04:54:23.912Z,0.00
2022-10-02T04:55:24.060Z,0.00
2022-10-02T04:56:24.222Z,0.01
2022-10-02T04:57:25.483Z,0.01
2022-10-02T04:58:23.544Z,0.01
2022-10-02T04:59:25.831Z,0.03
2022-10-02T05:00:24.956Z,0.01
2022-10-02T05:01:24.161Z,0.02
2022-10-02T05:02:24.354Z,0.02
2022-10-02T05:03:24.497Z,0.03
2022-10-02T05:04:24.717Z,0.03
2022-10-02T05:05:26.033Z,0.04
2022-10-02T05:06:24.042Z,0.05
2022-10-02T05:07:25.295Z,0.05
2022-10-02T05:08:25.486Z,0.06
2022-10-02T05:09:28.331Z,0.12
2022-10-02T05:10:25.857Z,0.10
2022-10-02T05:11:24.015Z,0.12
2022-10-02T05:12:24.145Z,0.17
2022-10-02T05:13:24.345Z,0.19
2022-10-02T05:14:25.562Z,0.25
2022-10-02T05:15:24.727Z,0.27
2022-10-02T05:16:23.923Z,0.33
2022-10-02T05:17:38.630Z,0.41
2022-10-02T05:18:25.312Z,0.53
2022-10-02T05:19:24.454Z,0.57
2022-10-02T05:20:23.636Z,0.68
2022-10-02T05:21:25.924Z,0.76
2022-10-02T05:22:24.005Z,0.87
2022-10-02T05:23:23.384Z,1.00
2022-10-02T05:24:25.415Z,1.21
2022-10-02T05:25:24.559Z,1.45
2022-10-02T05:26:23.716Z,1.76
2022-10-02T05:27:24.941Z,2.02
2022-10-02T05:28:25.205Z,2.67
2022-10-02T05:29:23.228Z,2.95
2022-10-02T05:30:23.407Z,3.57
2022-10-02T05:31:23.676Z,4.06
2022-10-02T05:32:24.854Z,4.69
2022-10-02T05:33:25.089Z,5.25
2022-10-02T05:34:25.274Z,5.12
2022-10-02T05:35:25.436Z,4.51
2022-10-02T05:36:25.661Z,4.68
2022-10-02T05:37:23.736Z,5.59
2022-10-02T05:38:24.985Z,6.63
2022-10-02T05:39:25.166Z,7.28
2022-10-02T05:40:23.341Z,7.60
2022-10-02T05:41:23.531Z,7.66
2022-10-02T05:42:23.687Z,7.46
2022-10-02T05:43:22.868Z,7.02
2022-10-02T05:44:23.019Z,6.71
2022-10-02T05:45:23.182Z,6.64
2022-10-02T05:46:23.501Z,6.76
2022-10-02T05:47:23.550Z,7.21
2022-10-02T05:48:23.748Z,7.95
2022-10-02T05:49:22.882Z,8.40
2022-10-02T05:50:23.071Z,8.76
2022-10-02T05:51:23.279Z,8.86
2022-10-02T05:52:23.623Z,9.18
2022-10-02T05:53:23.655Z,10.15
2022-10-02T05:54:22.787Z,11.21
2022-10-02T05:55:24.051Z,12.30
2022-10-02T05:56:23.152Z,13.65
2022-10-02T05:57:24.439Z,14.72
2022-10-02T05:58:22.525Z,15.63
2022-10-02T05:59:23.768Z,16.48
2022-10-02T06:00:22.929Z,17.06
2022-10-02T06:01:24.199Z,17.66
2022-10-02T06:02:24.450Z,18.54
2022-10-02T06:03:24.583Z,19.66
2022-10-02T06:04:22.662Z,20.86
2022-10-02T06:05:23.887Z,22.22
2022-10-02T06:06:23.022Z,24.15
2022-10-02T06:07:24.266Z,26.45
2022-10-02T06:08:23.413Z,28.80
2022-10-02T06:09:23.678Z,31.03
2022-10-02T06:10:23.774Z,32.74
2022-10-02T06:11:22.910Z,33.76
2022-10-02T06:12:24.236Z,34.10
2022-10-02T06:13:24.304Z,34.53
2022-10-02T06:14:22.430Z,35.50
2022-10-02T06:15:23.702Z,36.75
2022-10-02T06:16:22.870Z,38.18
2022-10-02T06:18:02.452Z,40.44
2022-10-02T06:18:23.168Z,40.81
2022-10-02T06:19:22.327Z,41.82
2022-10-02T06:20:23.530Z,43.44
2022-10-02T06:21:22.722Z,45.39
2022-10-02T06:22:22.862Z,47.49
2022-10-02T06:23:23.050Z,49.54
2022-10-02T06:24:22.209Z,51.55
2022-10-02T06:25:23.434Z,53.05
2022-10-02T06:26:22.580Z,53.90
2022-10-02T06:27:22.950Z,53.06
2022-10-02T06:28:23.138Z,53.34
2022-10-02T06:29:27.045Z,54.60
2022-10-02T06:30:23.335Z,56.69
2022-10-02T06:31:22.561Z,57.31
2022-10-02T06:32:22.733Z,56.83
2022-10-02T06:33:22.949Z,54.71
2022-10-02T06:34:23.083Z,50.62
2022-10-02T06:35:23.255Z,46.71
2022-10-02T06:36:23.471Z,44.13
2022-10-02T06:37:23.649Z,44.48
2022-10-02T06:38:22.753Z,44.81
2022-10-02T06:39:24.021Z,44.23
2022-10-02T06:40:23.096Z,47.49
2022-10-02T06:41:22.225Z,53.23
2022-10-02T06:42:23.453Z,54.19
2022-10-02T06:43:22.583Z,55.48
2022-10-02T06:44:23.776Z,56.42
2022-10-02T06:45:22.097Z,56.60
2022-10-02T06:46:23.086Z,55.30
2022-10-02T06:47:25.439Z,53.52
2022-10-02T06:48:22.478Z,53.74
2022-10-02T06:49:22.661Z,53.88
2022-10-02T06:50:23.970Z,53.81
2022-10-02T06:51:24.045Z,54.94
2022-10-02T06:52:24.254Z,56.61
2022-10-02T06:53:23.394Z,62.18
2022-10-02T06:54:22.604Z,68.55
2022-10-02T06:55:21.730Z,72.82
2022-10-02T06:56:23.029Z,73.99
2022-10-02T06:57:22.129Z,73.55
2022-10-02T06:58:22.295Z,73.30
2022-10-02T06:59:23.527Z,74.75
2022-10-02T07:00:23.778Z,75.29
2022-10-02T07:01:24.033Z,73.91
2022-10-02T07:02:24.194Z,70.79
2022-10-02T07:03:24.291Z,69.11
2022-10-02T07:04:23.453Z,68.77
2022-10-02T07:05:22.610Z,68.30
2022-10-02T07:06:23.823Z,70.20
2022-10-02T07:07:24.081Z,73.09
2022-10-02T07:08:24.169Z,74.97
2022-10-02T07:09:22.267Z,75.69
2022-10-02T07:10:22.425Z,76.83
2022-10-02T07:11:22.620Z,79.13
2022-10-02T07:12:22.803Z,81.26
2022-10-02T07:13:21.978Z,84.07
2022-10-02T07:14:24.185Z,86.75
2022-10-02T07:15:22.292Z,87.12
2022-10-02T07:16:22.519Z,86.77
2022-10-02T07:17:36.335Z,89.99
2022-10-02T07:18:23.895Z,92.80
2022-10-02T07:19:21.992Z,94.76
2022-10-02T07:20:23.291Z,94.86
2022-10-02T07:21:22.310Z,93.63
2022-10-02T07:22:43.433Z,92.90
2022-10-02T07:23:23.668Z,95.07
2022-10-02T07:24:21.843Z,100.13
2022-10-02T07:25:22.004Z,103.19
2022-10-02T07:26:23.210Z,108.47
2022-10-02T07:27:21.313Z,111.97
2022-10-02T07:28:21.546Z,115.47
2022-10-02T07:29:21.673Z,119.23
2022-10-02T07:30:22.259Z,122.88
2022-10-02T07:31:22.104Z,125.25
2022-10-02T07:32:23.225Z,125.79
2022-10-02T07:33:25.443Z,125.01
2022-10-02T07:34:22.467Z,121.69
2022-10-02T07:35:22.690Z,121.17
2022-10-02T07:36:21.802Z,122.36
2022-10-02T07:37:22.991Z,123.90
2022-10-02T07:38:22.137Z,126.83
2022-10-02T07:39:28.517Z,128.74
2022-10-02T07:40:21.464Z,130.83
2022-10-02T07:41:22.657Z,134.17
2022-10-02T07:42:21.772Z,138.28
2022-10-02T07:43:21.980Z,143.90
2022-10-02T07:44:22.152Z,150.27
2022-10-02T07:45:23.402Z,159.40
2022-10-02T07:46:22.510Z,164.59
2022-10-02T07:49:04.363Z,196.96
2022-10-02T07:49:10.611Z,198.35
2022-10-02T07:50:10.786Z,209.91
2022-10-02T07:51:10.992Z,219.35
2022-10-02T07:52:10.181Z,222.32
2022-10-02T07:53:10.408Z,223.19
2022-10-02T07:54:10.628Z,222.98
2022-10-02T07:55:10.777Z,222.90
2022-10-02T07:56:10.970Z,221.32
2022-10-02T07:57:11.407Z,219.71
2022-10-02T07:58:10.361Z,219.68
2022-10-02T07:59:10.570Z,220.70
2022-10-02T08:00:11.328Z,221.50
2022-10-02T08:01:10.924Z,219.35
2022-10-02T08:02:10.135Z,214.34
2022-10-02T08:03:10.341Z,207.21
2022-10-02T08:04:10.485Z,198.27
2022-10-02T08:05:10.693Z,189.25
2022-10-02T08:06:10.933Z,179.71
2022-10-02T08:07:10.117Z,169.12
2022-10-02T08:08:10.289Z,159.52
2022-10-02T08:09:10.550Z,150.12
2022-10-02T08:10:10.736Z,149.24
2022-10-02T08:11:10.895Z,152.51
2022-10-02T08:12:10.272Z,161.08
2022-10-02T08:13:11.238Z,166.61
2022-10-02T08:14:10.378Z,170.87
2022-10-02T08:15:10.598Z,174.38
2022-10-02T08:16:10.832Z,178.52
2022-10-02T08:17:12.006Z,183.95
2022-10-02T08:18:30.472Z,190.72
2022-10-02T08:19:11.375Z,197.73
2022-10-02T08:20:10.579Z,203.35
2022-10-02T08:21:09.711Z,208.44
2022-10-02T08:22:10.927Z,214.32
2022-10-02T08:23:10.078Z,221.05
2022-10-02T08:24:10.222Z,229.18
2022-10-02T08:25:10.382Z,239.31
2022-10-02T08:26:10.535Z,250.73
2022-10-02T08:27:09.656Z,263.21
2022-10-02T08:28:09.868Z,276.42
2022-10-02T08:29:10.679Z,286.20
2022-10-02T08:30:10.140Z,289.56
2022-10-02T08:31:10.329Z,285.58
2022-10-02T08:32:10.415Z,274.21
2022-10-02T08:33:09.527Z,259.84
2022-10-02T08:34:16.306Z,242.66
2022-10-02T08:35:09.837Z,226.62
2022-10-02T08:36:10.000Z,212.03
2022-10-02T08:37:10.180Z,201.45
2022-10-02T08:38:11.371Z,194.55
2022-10-02T08:39:10.474Z,189.32
2022-10-02T08:40:09.648Z,184.18
2022-10-02T08:41:09.735Z,180.00
2022-10-02T08:42:09.891Z,178.57
2022-10-02T08:43:10.042Z,179.86
2022-10-02T08:44:10.176Z,182.67
2022-10-02T08:45:10.393Z,185.63
2022-10-02T08:46:10.550Z,188.41
2022-10-02T08:47:11.627Z,191.22
2022-10-02T08:48:09.780Z,194.01
2022-10-02T08:49:09.907Z,197.73
2022-10-02T08:50:10.096Z,201.08
2022-10-02T08:51:10.238Z,205.98
2022-10-02T08:52:10.370Z,211.45
2022-10-02T08:53:10.488Z,217.27
2022-10-02T08:54:09.600Z,223.29
2022-10-02T08:55:10.806Z,227.67
2022-10-02T08:56:09.907Z,231.54
2022-10-02T08:57:10.089Z,235.05
2022-10-02T08:58:09.472Z,236.45
2022-10-02T08:59:09.318Z,236.97
2022-10-02T09:00:10.538Z,238.36
2022-10-02T09:01:10.762Z,242.53
2022-10-02T09:02:11.203Z,249.88
2022-10-02T09:03:16.196Z,258.73
2022-10-02T09:04:10.074Z,266.36
2022-10-02T09:05:10.244Z,271.62
2022-10-02T09:06:09.354Z,275.52
2022-10-02T09:07:10.533Z,280.29
2022-10-02T09:08:09.753Z,287.82
2022-10-02T09:09:09.813Z,291.72
2022-10-02T09:10:09.979Z,289.64
2022-10-02T09:11:09.117Z,288.45
2022-10-02T09:12:09.276Z,290.69
2022-10-02T09:13:09.440Z,291.87
2022-10-02T09:14:10.678Z,290.31
2022-10-02T09:15:09.732Z,288.11
2022-10-02T09:16:10.986Z,286.48
2022-10-02T09:17:09.019Z,289.63
2022-10-02T09:18:09.163Z,294.13
2022-10-02T09:19:09.331Z,296.50
2022-10-02T09:20:10.518Z,294.21
2022-10-02T09:21:11.748Z,293.36
2022-10-02T09:22:10.781Z,292.54
2022-10-02T09:23:09.960Z,284.42
2022-10-02T09:24:09.031Z,267.99
2022-10-02T09:25:09.202Z,258.13
2022-10-02T09:26:09.577Z,247.23
2022-10-02T09:27:10.562Z,234.70
2022-10-02T09:28:09.713Z,224.97
2022-10-02T09:29:08.776Z,254.47
2022-10-02T09:30:08.923Z,285.37
2022-10-02T09:31:09.034Z,329.88
2022-10-02T09:32:09.402Z,361.64
2022-10-02T09:33:11.645Z,365.89
2022-10-02T09:34:09.473Z,360.15
2022-10-02T09:35:09.624Z,426.84
2022-10-02T09:36:08.725Z,422.36
2022-10-02T09:37:08.873Z,439.79
2022-10-02T09:38:09.679Z,437.66
2022-10-02T09:39:09.186Z,438.02
2022-10-02T09:40:09.323Z,460.16
2022-10-02T09:41:09.487Z,478.44
2022-10-02T09:42:08.578Z,483.85
2022-10-02T09:43:08.723Z,484.52
2022-10-02T09:44:09.954Z,476.16
2022-10-02T09:45:09.004Z,482.21
2022-10-02T09:46:09.185Z,499.29
2022-10-02T09:47:09.322Z,514.74
2022-10-02T09:48:09.441Z,503.20
2022-10-02T09:49:09.626Z,499.47
2022-10-02T09:50:09.988Z,506.06
2022-10-02T09:51:09.897Z,499.67
2022-10-02T09:52:09.026Z,535.58
2022-10-02T09:53:09.188Z,540.12
2022-10-02T09:54:09.371Z,641.39
2022-10-02T09:55:09.458Z,813.64
2022-10-02T09:56:08.637Z,682.21
2022-10-02T09:57:09.728Z,614.87
2022-10-02T09:58:08.866Z,684.29
2022-10-02T09:59:08.992Z,650.51
2022-10-02T10:00:09.137Z,759.66
2022-10-02T10:01:09.363Z,880.32
2022-10-02T10:02:09.487Z,1127.04
2022-10-02T10:03:08.574Z,904.22
2022-10-02T10:04:09.752Z,723.23
2022-10-02T10:05:09.021Z,821.26
2022-10-02T10:06:09.011Z,863.18
2022-10-02T10:07:09.159Z,589.77
2022-10-02T10:08:09.315Z,561.12
2022-10-02T10:09:08.376Z,509.37
2022-10-02T10:10:11.657Z,347.41
2022-10-02T10:11:10.787Z,245.30
2022-10-02T10:12:08.794Z,209.78
2022-10-02T10:13:08.937Z,207.04
2022-10-02T10:14:09.081Z,207.85
2022-10-02T10:15:09.289Z,200.89
2022-10-02T10:16:10.555Z,185.93
2022-10-02T10:17:09.030Z,201.40
2022-10-02T10:18:09.769Z,221.96
2022-10-02T10:19:08.899Z,245.10
2022-10-02T10:20:09.058Z,269.36
2022-10-02T10:21:09.192Z,299.59
2022-10-02T10:22:09.387Z,339.20
2022-10-02T10:23:08.460Z,409.25
2022-10-02T10:24:10.686Z,453.63
2022-10-02T10:25:08.741Z,486.35
2022-10-02T10:26:09.928Z,529.42
2022-10-02T10:27:09.061Z,523.72
2022-10-02T10:28:09.373Z,493.94
2022-10-02T10:29:09.345Z,466.06
2022-10-02T10:30:08.461Z,469.42
2022-10-02T10:31:08.619Z,487.81
2022-10-02T10:32:08.752Z,472.72
2022-10-02T10:33:09.006Z,418.86
2022-10-02T10:34:08.088Z,380.82
2022-10-02T10:35:08.158Z,400.96
2022-10-02T10:36:08.397Z,422.95
2022-10-02T10:37:14.732Z,417.75
2022-10-02T10:38:08.642Z,427.20
2022-10-02T10:39:09.028Z,421.64
2022-10-02T10:40:08.941Z,400.43
2022-10-02T10:41:09.101Z,371.90
2022-10-02T10:42:09.309Z,321.97
2022-10-02T10:43:11.639Z,291.16
2022-10-02T10:44:09.715Z,267.29
2022-10-02T10:45:08.795Z,267.11
2022-10-02T10:46:09.037Z,262.55
2022-10-02T10:47:08.107Z,255.41
2022-10-02T10:48:08.255Z,260.28
2022-10-02T10:49:09.440Z,269.72
2022-10-02T10:50:09.697Z,267.42
2022-10-02T10:51:08.751Z,271.43
2022-10-02T10:52:07.919Z,275.90
2022-10-02T10:53:09.098Z,271.50
2022-10-02T10:54:09.278Z,267.25
2022-10-02T10:55:09.443Z,265.68
2022-10-02T10:56:08.626Z,262.64
2022-10-02T10:57:07.746Z,241.63
2022-10-02T10:58:08.939Z,199.14
2022-10-02T10:59:08.103Z,165.33
2022-10-02T11:00:11.471Z,142.34
2022-10-02T11:01:09.997Z,125.89
2022-10-02T11:02:07.668Z,117.96
2022-10-02T11:03:08.829Z,118.79
2022-10-02T11:04:09.014Z,115.37
2022-10-02T11:05:09.196Z,114.16
2022-10-02T11:06:10.607Z,113.53
2022-10-02T11:07:10.647Z,117.01
2022-10-02T11:08:07.743Z,123.69
2022-10-02T11:09:09.016Z,133.37
2022-10-02T11:10:08.152Z,135.64
2022-10-02T11:11:09.395Z,130.25
2022-10-02T11:12:09.937Z,124.66
2022-10-02T11:13:07.672Z,123.46
2022-10-02T11:14:57.751Z,125.44
2022-10-02T11:15:08.080Z,129.94
2022-10-02T11:16:08.287Z,175.90
2022-10-02T11:17:10.610Z,227.27
2022-10-02T11:18:07.635Z,238.14
2022-10-02T11:19:07.823Z,270.06
2022-10-02T11:20:09.064Z,310.37
2022-10-02T11:21:08.242Z,312.23
2022-10-02T11:22:07.392Z,292.47
2022-10-02T11:23:08.656Z,284.99
2022-10-02T11:24:07.783Z,290.58
2022-10-02T11:25:12.556Z,303.43
2022-10-02T11:26:09.151Z,296.78
2022-10-02T11:27:09.347Z,299.36
2022-10-02T11:28:09.596Z,322.41
2022-10-02T11:29:09.714Z,334.30
2022-10-02T11:30:09.952Z,329.84
2022-10-02T11:31:07.978Z,302.59
2022-10-02T11:32:07.214Z,260.16
2022-10-02T11:33:08.314Z,228.40
2022-10-02T11:34:07.505Z,225.48
2022-10-02T11:35:08.699Z,244.28
2022-10-02T11:36:09.910Z,252.23
2022-10-02T11:37:10.103Z,257.02
2022-10-02T11:38:08.159Z,258.32
2022-10-02T11:39:08.769Z,264.85
2022-10-02T11:40:08.519Z,305.81
2022-10-02T11:41:08.688Z,342.34
2022-10-02T11:42:08.891Z,385.17
2022-10-02T11:43:09.045Z,318.96
2022-10-02T11:44:09.266Z,277.67
2022-10-02T11:45:09.533Z,276.00
2022-10-02T11:46:08.628Z,301.16
2022-10-02T11:47:07.698Z,313.95
2022-10-02T11:48:08.940Z,316.12
2022-10-02T11:49:09.181Z,312.02
2022-10-02T11:50:07.340Z,311.77
2022-10-02T11:51:09.468Z,270.87
2022-10-02T11:52:08.617Z,253.20
2022-10-02T11:53:07.762Z,257.43
2022-10-02T11:54:10.364Z,237.75
2022-10-02T11:55:07.079Z,245.06
2022-10-02T11:56:10.364Z,242.15
2022-10-02T11:57:09.527Z,265.04
2022-10-02T11:58:07.659Z,285.84
2022-10-02T11:59:09.922Z,312.64
2022-10-02T12:00:14.411Z,374.51
2022-10-02T12:01:07.203Z,386.17
2022-10-02T12:02:11.575Z,334.41
2022-10-02T12:03:08.604Z,303.94
2022-10-02T12:04:08.788Z,295.59
2022-10-02T12:05:06.893Z,286.21
2022-10-02T12:06:09.258Z,305.54
2022-10-02T12:07:09.295Z,330.37
2022-10-02T12:08:08.479Z,330.95
2022-10-02T12:09:08.681Z,332.87
2022-10-02T12:10:09.834Z,374.27
2022-10-02T12:11:07.900Z,384.06
2022-10-02T12:12:08.332Z,396.27
2022-10-02T12:13:10.477Z,411.57
2022-10-02T12:14:08.428Z,422.79
2022-10-02T12:15:13.865Z,426.43
2022-10-02T12:16:07.786Z,438.52
2022-10-02T12:17:09.005Z,469.88
2022-10-02T12:18:07.077Z,503.45
2022-10-02T12:19:08.288Z,539.09
2022-10-02T12:20:10.570Z,540.38
2022-10-02T12:21:08.669Z,569.17
2022-10-02T12:22:09.979Z,581.91
2022-10-02T12:23:09.032Z,533.14
2022-10-02T12:24:08.185Z,504.58
2022-10-02T12:25:09.323Z,483.36
2022-10-02T12:26:08.563Z,466.46
2022-10-02T12:27:07.693Z,476.31
2022-10-02T12:28:09.104Z,454.36
2022-10-02T12:29:09.051Z,446.98
2022-10-02T12:30:10.289Z,429.09
2022-10-02T12:31:09.377Z,430.65
2022-10-02T12:32:09.566Z,447.46
2022-10-02T12:33:09.830Z,469.58
2022-10-02T12:34:09.899Z,495.83
2022-10-02T12:35:10.120Z,527.79
2022-10-02T12:36:07.108Z,540.11
2022-10-02T12:37:09.350Z,552.34
2022-10-02T12:38:08.491Z,576.12
2022-10-02T12:39:10.188Z,613.11
2022-10-02T12:40:09.849Z,652.79
2022-10-02T12:41:10.046Z,673.55
2022-10-02T12:42:07.060Z,669.84
2022-10-02T12:43:09.342Z,659.16
2022-10-02T12:44:08.518Z,687.83
2022-10-02T12:45:11.909Z,705.85
2022-10-02T12:46:09.896Z,686.11
2022-10-02T12:47:06.951Z,667.15
2022-10-02T12:48:09.168Z,714.91
2022-10-02T12:49:09.361Z,793.69
2022-10-02T12:50:08.524Z,824.88
2022-10-02T12:51:06.659Z,867.38
2022-10-02T12:52:15.105Z,912.92
2022-10-02T12:53:06.926Z,896.10
2022-10-02T12:54:15.418Z,845.28
2022-10-02T12:55:06.212Z,733.92
2022-10-02T12:56:09.513Z,699.01
2022-10-02T12:57:10.701Z,652.45
2022-10-02T12:58:08.760Z,608.25
2022-10-02T12:59:06.860Z,583.16
2022-10-02T13:00:09.107Z,585.95
2022-10-02T13:01:08.287Z,603.94